createdAt,value
2022-09-10T09:55:44.199Z,1.08
2022-09-10T09:58:21.125Z,1.00
2022-09-10T10:00:52.834Z,0.90
2022-09-10T10:03:28.904Z,1.10
2022-09-10T10:06:08.200Z,1.20
2022-09-10T10:09:05.665Z,1.02
2022-09-10T10:11:53.716Z,1.10
2022-09-10T10:14:20.877Z,1.27
2022-09-10T10:16:57.384Z,1.48
2022-09-10T10:19:28.446Z,1.05
2022-09-10T10:21:55.768Z,1.27
2022-09-10T10:24:34.113Z,1.10
2022-09-10T10:27:02.302Z,0.80
2022-09-10T10:29:30.195Z,1.23
2022-09-10T10:31:57.664Z,1.20
2022-09-10T10:35:10.195Z,1.00
2022-09-10T10:37:42.909Z,1.30
2022-09-10T10:40:18.660Z,1.10
2022-09-10T10:43:20.500Z,1.20
2022-09-10T10:46:01.485Z,1.00
2022-09-10T10:48:28.747Z,1.17
2022-09-10T10:51:14.866Z,1.17
2022-09-10T10:53:51.704Z,0.85
2022-09-10T10:56:37.265Z,1.25
2022-09-10T10:59:23.509Z,1.38
2022-09-10T11:01:57.715Z,1.13
2022-09-10T11:04:32.697Z,1.00
2022-09-10T11:07:09.652Z,1.10
2022-09-10T11:09:51.865Z,1.10
2022-09-10T11:12:38.530Z,1.30
2022-09-10T11:15:47.726Z,1.50
2022-09-10T11:18:35.004Z,1.20
2022-09-10T11:21:08.098Z,1.20
2022-09-10T11:24:08.173Z,1.20
2022-09-10T11:26:42.157Z,1.20
2022-09-10T11:29:34.107Z,1.63
2022-09-10T11:32:06.337Z,1.50
2022-09-10T11:34:43.644Z,1.45
2022-09-10T11:37:35.341Z,1.40
2022-09-10T11:40:10.815Z,1.40
2022-09-10T11:42:46.484Z,1.42
2022-09-10T11:45:33.373Z,1.00
2022-09-10T11:48:27.531Z,1.50
2022-09-10T11:51:24.385Z,1.45
2022-09-10T11:53:54.344Z,1.48
2022-09-10T11:56:40.729Z,1.40
2022-09-10T11:59:22.694Z,1.75
2022-09-10T12:02:02.474Z,1.17
2022-09-10T12:04:47.555Z,1.42
2022-09-10T12:07:33.636Z,1.50
2022-09-10T12:10:23.877Z,1.00
2022-09-10T12:12:51.220Z,1.42
2022-09-10T12:15:34.500Z,1.63
2022-09-10T12:18:07.663Z,1.15
2022-09-10T12:20:42.304Z,1.70
2022-09-10T12:23:32.257Z,1.77
2022-09-10T12:26:05.324Z,1.95
2022-09-10T12:28:42.212Z,1.85
2022-09-10T12:31:12.120Z,1.70
2022-09-10T12:33:42.441Z,1.70
2022-09-10T12:36:15.454Z,1.70
2022-09-10T12:39:16.335Z,1.55
2022-09-10T12:41:43.550Z,1.35
2022-09-10T12:44:27.834Z,1.98
2022-09-10T12:47:16.925Z,2.05
2022-09-10T12:50:00.073Z,1.60
2022-09-10T12:52:31.461Z,2.28
2022-09-10T12:55:08.484Z,2.00
2022-09-10T12:58:05.676Z,1.70
2022-09-10T13:00:55.159Z,1.77
2022-09-10T13:03:27.992Z,1.88
2022-09-10T13:06:04.240Z,1.83
2022-09-10T13:08:33.731Z,1.73
2022-09-10T13:11:02.903Z,1.80
2022-09-10T13:13:46.326Z,1.83
2022-09-10T13:16:38.248Z,2.00
2022-09-10T13:19:17.463Z,1.40
2022-09-10T13:21:47.147Z,2.00
2022-09-10T13:24:34.066Z,2.00
2022-09-10T13:27:39.059Z,1.83
2022-09-10T13:30:20.233Z,1.92
2022-09-10T13:35:28.991Z,2.22
2022-09-10T13:38:15.342Z,1.60
2022-09-10T13:41:08.117Z,1.60
2022-09-10T13:43:57.561Z,1.80
2022-09-10T13:46:41.660Z,2.13
2022-09-10T13:49:24.935Z,1.45
2022-09-10T13:51:57.453Z,1.50
2022-09-10T13:54:36.765Z,1.48
2022-09-10T13:57:13.225Z,1.67
2022-09-10T13:59:42.744Z,1.70
2022-09-10T14:02:10.663Z,2.20
2022-09-10T14:04:44.390Z,1.40
2022-09-10T14:07:21.903Z,1.75
2022-09-10T14:09:53.084Z,1.88
2022-09-10T14:12:26.521Z,1.70
2022-09-10T14:14:59.211Z,1.48
2022-09-10T14:17:35.456Z,1.65
2022-09-10T14:20:22.235Z,1.63
2022-09-10T14:22:58.661Z,1.65
2022-09-10T14:25:34.941Z,1.55
2022-09-10T14:28:24.209Z,2.10
2022-09-10T14:31:12.134Z,1.40
2022-09-10T14:33:40.482Z,1.50
2022-09-10T14:36:36.893Z,2.03
2022-09-10T14:39:20.888Z,1.70
2022-09-10T14:41:49.854Z,1.60
2022-09-10T14:44:23.882Z,1.45
2022-09-10T14:47:00.015Z,1.30
2022-09-10T14:49:36.347Z,1.30
2022-09-10T14:52:06.063Z,1.40
2022-09-10T14:54:35.287Z,1.50
2022-09-10T14:57:20.883Z,1.20
2022-09-10T14:59:48.549Z,1.20
2022-09-10T15:02:22.140Z,1.10
2022-09-10T15:04:50.606Z,1.08
2022-09-10T15:07:18.216Z,1.48
2022-09-10T15:09:46.843Z,1.17
2022-09-10T15:12:31.466Z,1.20
2022-09-10T15:14:59.375Z,1.38
2022-09-10T15:17:26.961Z,1.52
2022-09-10T15:19:55.415Z,1.38
2022-09-10T15:22:33.570Z,1.20
2022-09-10T15:25:15.856Z,1.10
2022-09-10T15:27:44.424Z,1.48
2022-09-10T15:30:11.762Z,1.50
2022-09-10T15:32:38.984Z,1.30
2022-09-10T15:35:06.733Z,1.20
2022-09-10T15:37:34.606Z,1.30
2022-09-10T15:40:03.798Z,1.48
2022-09-10T15:42:31.566Z,1.17
2022-09-10T15:44:59.207Z,1.23
2022-09-10T15:47:26.972Z,1.40
2022-09-10T15:49:54.259Z,1.00
2022-09-10T15:52:22.174Z,1.05
2022-09-10T15:54:49.552Z,1.10
2022-09-10T15:57:16.988Z,1.27
2022-09-10T15:59:44.542Z,0.95
2022-09-10T16:02:13.245Z,1.10
2022-09-10T16:04:43.069Z,1.13
2022-09-10T16:07:10.941Z,1.85
2022-09-10T16:09:38.417Z,4.80
2022-09-10T16:12:06.120Z,7.32
2022-09-10T16:14:34.094Z,2.67
2022-09-10T16:17:02.405Z,3.22
2022-09-10T16:19:31.088Z,1.70
2022-09-10T16:21:58.924Z,2.10
2022-09-10T16:24:26.675Z,2.63
2022-09-10T16:26:54.190Z,1.33
2022-09-10T16:29:22.349Z,1.42
2022-09-10T16:31:50.117Z,1.60
2022-09-10T16:34:20.010Z,1.48
2022-09-10T16:36:52.237Z,1.17
2022-09-10T16:39:20.051Z,1.10
2022-09-10T16:41:50.915Z,0.98
2022-09-10T16:44:19.127Z,1.08
2022-09-10T16:46:47.171Z,1.05
2022-09-10T16:49:18.265Z,1.35
2022-09-10T16:51:47.744Z,1.08
2022-09-10T16:54:19.412Z,1.30
2022-09-10T16:56:48.395Z,1.45
2022-09-10T16:59:19.512Z,1.00
2022-09-10T17:01:48.405Z,1.38
2022-09-10T17:04:21.330Z,1.25
2022-09-10T17:06:51.124Z,1.23
2022-09-10T17:09:19.419Z,1.23
2022-09-10T17:11:46.852Z,1.52
2022-09-10T17:14:15.064Z,1.67
2022-09-10T17:16:43.461Z,1.40
2022-09-10T17:19:15.468Z,1.60
2022-09-10T17:21:45.584Z,1.40
2022-09-10T17:24:14.007Z,1.30
2022-09-10T17:26:41.990Z,1.20
2022-09-10T17:29:15.312Z,1.80
2022-09-10T17:31:46.578Z,2.10
2022-09-10T17:34:15.836Z,2.42
2022-09-10T17:36:46.029Z,1.95
2022-09-10T17:39:15.846Z,2.33
2022-09-10T17:41:45.131Z,2.15
2022-09-10T17:44:13.531Z,2.00
2022-09-10T17:46:42.981Z,2.17
2022-09-10T17:49:13.576Z,2.20
2022-09-10T17:51:42.124Z,2.20
2022-09-10T17:54:09.986Z,2.55
2022-09-10T17:56:38.154Z,3.13
2022-09-10T17:59:06.582Z,3.58
2022-09-10T18:01:37.729Z,2.65
2022-09-10T18:04:06.972Z,2.50
2022-09-10T18:06:37.756Z,2.63
2022-09-10T18:09:06.180Z,2.63
2022-09-10T18:11:38.634Z,2.70
2022-09-10T18:14:07.154Z,2.95
2022-09-10T18:16:36.469Z,3.10
2022-09-10T18:19:13.882Z,3.10
2022-09-10T18:21:43.863Z,2.70
2022-09-10T18:24:12.708Z,2.88
2022-09-10T18:26:44.183Z,3.10
2022-09-10T18:29:14.534Z,3.10
2022-09-10T18:31:52.961Z,3.97
2022-09-10T18:34:23.828Z,2.75
2022-09-10T18:36:55.715Z,3.47
2022-09-10T18:39:25.102Z,3.20
2022-09-10T18:41:54.722Z,3.05
2022-09-10T18:44:25.357Z,3.03
2022-09-10T18:46:53.691Z,3.42
2022-09-10T18:49:24.243Z,3.60
2022-09-10T18:51:53.433Z,4.00
2022-09-10T18:54:23.187Z,3.63
2022-09-10T18:56:51.552Z,3.65
2022-09-10T18:59:21.409Z,3.10
2022-09-10T19:01:51.431Z,2.33
2022-09-10T19:04:22.046Z,2.47
2022-09-10T19:06:49.838Z,3.20
2022-09-10T19:09:25.896Z,3.28
2022-09-10T19:11:55.476Z,2.83
2022-09-10T19:14:26.054Z,3.17
2022-09-10T19:16:54.823Z,3.20
2022-09-10T19:19:30.099Z,3.60
2022-09-10T19:22:05.647Z,3.22
2022-09-10T19:27:21.397Z,3.72
2022-09-10T19:29:49.841Z,3.70
2022-09-10T19:32:19.611Z,3.90
2022-09-10T19:34:51.916Z,3.63
2022-09-10T19:37:19.782Z,4.63
2022-09-10T19:39:47.874Z,4.68
2022-09-10T19:42:15.284Z,4.55
2022-09-10T19:44:43.490Z,5.07
2022-09-10T19:47:11.055Z,5.00
2022-09-10T19:49:39.033Z,5.10
2022-09-10T19:52:06.903Z,5.30
2022-09-10T19:54:35.110Z,5.43
2022-09-10T19:57:02.972Z,5.53
2022-09-10T19:59:30.675Z,5.70
2022-09-10T20:01:58.042Z,5.50
2022-09-10T20:04:25.978Z,5.95
2022-09-10T20:06:53.604Z,6.88
2022-09-10T20:09:21.026Z,6.55
2022-09-10T20:11:49.103Z,6.47
2022-09-10T20:14:16.945Z,6.20
2022-09-10T20:16:45.285Z,6.20
2022-09-10T20:19:18.089Z,7.40
2022-09-10T20:21:47.951Z,6.82
2022-09-10T20:24:16.139Z,6.80
2022-09-10T20:26:46.353Z,7.20
2022-09-10T20:29:16.402Z,7.40
2022-09-10T20:31:44.361Z,7.22
2022-09-10T20:34:17.885Z,7.80
2022-09-10T20:36:46.780Z,8.32
2022-09-10T20:39:16.992Z,7.85
2022-09-10T20:41:45.978Z,8.27
2022-09-10T20:44:18.097Z,8.25
2022-09-10T20:46:46.075Z,8.25
2022-09-10T20:49:15.912Z,8.38
2022-09-10T20:51:44.156Z,9.23
2022-09-10T20:54:17.038Z,8.35
2022-09-10T20:56:46.716Z,9.05
2022-09-10T20:59:17.883Z,8.63
2022-09-10T21:01:46.941Z,7.32
2022-09-10T21:04:15.322Z,8.82
2022-09-10T21:06:43.358Z,7.78
2022-09-10T21:09:12.012Z,7.90
2022-09-10T21:11:39.676Z,8.60
2022-09-10T21:14:07.792Z,7.82
2022-09-10T21:16:37.574Z,8.63
2022-09-10T21:19:11.095Z,8.40
2022-09-10T21:21:39.741Z,8.43
2022-09-10T21:24:18.303Z,8.65
2022-09-10T21:26:46.133Z,9.00
2022-09-10T21:29:18.327Z,8.82
2022-09-10T21:31:46.664Z,8.75
2022-09-10T21:34:14.736Z,9.15
2022-09-10T21:36:46.131Z,8.57
2022-09-10T21:39:15.489Z,9.05
2022-09-10T21:41:47.587Z,9.05
2022-09-10T21:44:21.927Z,8.82
2022-09-10T21:46:49.934Z,9.70
2022-09-10T21:49:17.864Z,8.68
2022-09-10T21:51:45.246Z,9.00
2022-09-10T21:54:21.875Z,9.82
2022-09-10T21:56:50.657Z,10.07
2022-09-10T21:59:18.800Z,11.05
2022-09-10T22:01:47.244Z,11.23
2022-09-10T22:04:19.953Z,12.15
2022-09-10T22:06:48.981Z,11.75
2022-09-10T22:09:16.722Z,10.55
2022-09-10T22:11:46.874Z,11.55
2022-09-10T22:14:17.458Z,11.77
2022-09-10T22:16:45.562Z,11.30
2022-09-10T22:19:16.095Z,11.30
2022-09-10T22:21:43.772Z,11.63
2022-09-10T22:24:13.116Z,11.40
2022-09-10T22:26:43.309Z,11.43
2022-09-10T22:29:12.480Z,11.10
2022-09-10T22:31:40.260Z,10.82
2022-09-10T22:34:11.303Z,10.98
2022-09-10T22:36:40.572Z,11.35
2022-09-10T22:39:13.365Z,10.57
2022-09-10T22:41:41.667Z,9.90
2022-09-10T22:44:10.141Z,10.68
2022-09-10T22:46:38.189Z,10.93
2022-09-10T22:49:06.582Z,11.68
2022-09-10T22:51:37.133Z,11.05
2022-09-10T22:54:05.931Z,12.37
2022-09-10T22:56:35.784Z,11.88
2022-09-10T22:59:04.797Z,11.70
2022-09-10T23:01:37.835Z,11.52
2022-09-10T23:04:07.519Z,11.32
2022-09-10T23:06:37.778Z,10.93
2022-09-10T23:09:09.112Z,10.40
2022-09-10T23:11:37.522Z,11.00
2022-09-10T23:14:09.106Z,9.90
2022-09-10T23:16:38.909Z,10.25
2022-09-10T23:19:13.480Z,9.52
2022-09-10T23:21:46.598Z,9.57
2022-09-10T23:24:16.492Z,10.15
2022-09-10T23:26:45.157Z,9.02
2022-09-10T23:29:13.515Z,9.18
2022-09-10T23:31:41.380Z,10.10
2022-09-10T23:34:18.892Z,11.15
2022-09-10T23:36:48.617Z,10.18
2022-09-10T23:39:21.839Z,10.70
2022-09-10T23:41:50.867Z,9.98
2022-09-10T23:44:18.384Z,11.07
2022-09-10T23:53:12.783Z,10.57
2022-09-10T23:55:40.279Z,9.75
2022-09-10T23:58:07.783Z,9.38
